Time;durP1;ratioP1;P1;durP2;ratioP2;P2;SDS_P1;SDS_P2;PMS_P1;PMS_P2;Temp;Humidity;BMP_temperature;BMP_pressure;BME280_temperature;BME280_humidity;BME280_pressure;Samples;Min_cycle;Max_cycle;Signal;HPM_P1;HPM_P2
2023/01/06 00:02:04;;;;;;;1.03;1.03;;;4.20;99.90;;;;;;5010975;28;20657;-70
2023/01/06 00:04:29;;;;;;;2.07;1.60;;;4.30;99.90;;;;;;5010995;28;20243;-70
2023/01/06 00:06:55;;;;;;;2.47;1.47;;;4.40;99.90;;;;;;5010651;28;20207;-70
2023/01/06 00:09:21;;;;;;;2.03;1.50;;;4.50;99.90;;;;;;5010670;28;20181;-70
2023/01/06 00:11:46;;;;;;;1.87;1.50;;;4.60;99.90;;;;;;5010865;28;20211;-70
2023/01/06 00:14:12;;;;;;;1.87;1.60;;;4.70;99.90;;;;;;5010461;28;20243;-70
2023/01/06 00:16:37;;;;;;;2.13;1.80;;;4.70;99.90;;;;;;5010489;28;20223;-70
2023/01/06 00:19:03;;;;;;;4.23;2.10;;;4.80;99.90;;;;;;5010609;28;20263;-71
2023/01/06 00:21:29;;;;;;;1.83;1.73;;;4.80;99.90;;;;;;5010638;28;20234;-69
2023/01/06 00:23:55;;;;;;;2.30;1.30;;;4.90;99.90;;;;;;5010475;28;20191;-70
2023/01/06 00:26:20;;;;;;;1.63;1.30;;;4.90;99.90;;;;;;5010266;28;20929;-70
2023/01/06 00:28:47;;;;;;;2.87;1.67;;;5.00;99.90;;;;;;5010781;28;20623;-70
2023/01/06 00:31:14;;;;;;;3.73;1.70;;;5.00;99.90;;;;;;5010381;28;20407;-71
2023/01/06 00:33:41;;;;;;;1.53;1.30;;;5.00;99.90;;;;;;5011016;28;20573;-71
2023/01/06 00:36:08;;;;;;;1.37;1.27;;;5.10;99.90;;;;;;5010218;28;20496;-71
2023/01/06 00:38:35;;;;;;;1.27;1.13;;;5.10;99.90;;;;;;5010518;28;20954;-71
2023/01/06 00:43:57;;;;;;;4.50;2.20;;;5.20;99.90;;;;;;5005343;28;20595;-71
2023/01/06 00:46:25;;;;;;;1.50;1.40;;;5.20;99.90;;;;;;5010351;28;20522;-71
2023/01/06 00:48:51;;;;;;;2.80;1.43;;;5.20;99.90;;;;;;5010283;28;20423;-71
2023/01/06 00:51:16;;;;;;;2.20;2.00;;;5.20;99.90;;;;;;5010222;28;20431;-71
2023/01/06 00:53:42;;;;;;;3.70;2.10;;;5.20;99.90;;;;;;5010362;28;20642;-71
2023/01/06 00:56:08;;;;;;;6.23;1.67;;;5.20;99.90;;;;;;5010442;28;20645;-71
2023/01/06 00:58:33;;;;;;;2.10;1.43;;;5.10;99.90;;;;;;5010152;28;20176;-71
2023/01/06 01:01:06;;;;;;;1.70;1.37;;;5.10;99.90;;;;;;5010558;28;20190;-71
2023/01/06 01:03:34;;;;;;;9.87;1.90;;;5.10;99.90;;;;;;5010300;28;20172;-71
2023/01/06 01:06:00;;;;;;;3.80;1.83;;;5.10;99.90;;;;;;5010188;28;20790;-71
2023/01/06 01:08:26;;;;;;;2.50;1.50;;;5.10;99.90;;;;;;5010069;28;20458;-71
2023/01/06 01:10:52;;;;;;;4.30;2.10;;;5.10;99.90;;;;;;5010164;28;20929;-71
2023/01/06 01:13:18;;;;;;;6.50;2.00;;;5.10;99.90;;;;;;5010567;28;20509;-71
2023/01/06 01:15:44;;;;;;;2.23;1.60;;;5.10;99.90;;;;;;5009911;28;20831;-70
2023/01/06 01:18:09;;;;;;;13.30;2.33;;;5.10;99.90;;;;;;5010196;28;20180;-70
2023/01/06 01:20:35;;;;;;;2.80;2.10;;;5.00;99.90;;;;;;5008040;28;20179;-71
2023/01/06 01:23:00;;;;;;;2.70;1.70;;;5.00;99.90;;;;;;5007180;28;20196;-71
2023/01/06 01:25:26;;;;;;;2.77;1.83;;;5.00;99.90;;;;;;5010085;28;20196;-70
2023/01/06 01:27:51;;;;;;;6.87;2.30;;;5.00;99.90;;;;;;5009983;28;20184;-70
2023/01/06 01:30:19;;;;;;;4.67;3.27;;;5.00;99.90;;;;;;5008240;28;20190;-71
2023/01/06 01:32:45;;;;;;;4.57;1.90;;;5.00;99.90;;;;;;5009955;28;20172;-70
2023/01/06 01:35:11;;;;;;;3.30;2.43;;;5.00;99.90;;;;;;5009598;28;20458;-70
2023/01/06 01:37:37;;;;;;;5.70;2.13;;;5.00;99.90;;;;;;5009845;28;20431;-71
2023/01/06 01:40:03;;;;;;;6.03;2.07;;;5.00;99.90;;;;;;5010089;28;20473;-70
2023/01/06 01:42:29;;;;;;;2.10;1.83;;;5.00;99.90;;;;;;5009911;28;20180;-70
2023/01/06 01:45:04;;;;;;;2.90;2.00;;;5.00;99.90;;;;;;5009814;28;20419;-70
2023/01/06 01:47:42;;;;;;;3.93;2.00;;;5.10;99.90;;;;;;5009419;28;20449;-70
2023/01/06 01:50:35;;;;;;;8.80;2.80;;;5.10;99.90;;;;;;5009620;28;20494;-70
2023/01/06 01:53:09;;;;;;;1.63;1.50;;;5.10;99.90;;;;;;5005085;28;20813;-71
2023/01/06 01:55:36;;;;;;;2.13;1.77;;;5.10;99.90;;;;;;5009330;28;20547;-71
2023/01/06 01:58:07;;;;;;;4.63;2.20;;;5.10;99.90;;;;;;5011066;28;20419;-71
2023/01/06 02:00:34;;;;;;;2.63;1.90;;;5.20;99.90;;;;;;5013114;28;20422;-71
2023/01/06 02:03:00;;;;;;;3.07;1.90;;;5.20;99.90;;;;;;5013376;28;20838;-71
2023/01/06 02:05:27;;;;;;;3.90;1.63;;;5.20;99.90;;;;;;5012937;28;20553;-70
2023/01/06 02:07:56;;;;;;;2.80;2.10;;;5.30;99.90;;;;;;5013176;28;20420;-71
2023/01/06 02:10:23;;;;;;;1.93;1.73;;;5.20;99.90;;;;;;5011198;28;20742;-71
2023/01/06 02:12:54;;;;;;;3.10;1.50;;;5.20;99.90;;;;;;5012222;28;20501;-71
2023/01/06 02:15:29;;;;;;;4.20;2.23;;;5.20;99.90;;;;;;5005651;28;20984;-71
2023/01/06 02:18:06;;;;;;;2.43;1.40;;;5.30;99.90;;;;;;5012853;28;20529;-71
2023/01/06 02:21:15;;;;;;;1.60;1.47;;;5.30;99.90;;;;;;5012823;28;20407;-70
2023/01/06 02:23:55;;;;;;;2.30;1.60;;;5.30;99.90;;;;;;5011456;28;20415;-70
2023/01/06 02:26:29;;;;;;;2.53;1.40;;;5.40;99.90;;;;;;5012436;28;20433;-70
2023/01/06 02:29:10;;;;;;;3.67;2.37;;;5.40;99.90;;;;;;5012555;28;20423;-70
2023/01/06 02:32:13;;;;;;;1.83;1.67;;;5.40;99.90;;;;;;5009348;28;20840;-71
2023/01/06 02:34:40;;;;;;;5.97;1.90;;;5.40;99.90;;;;;;4988418;28;20451;-71
2023/01/06 02:37:39;;;;;;;1.83;1.30;;;5.40;99.90;;;;;;5012497;28;20517;-71
2023/01/06 02:40:39;;;;;;;3.43;1.43;;;5.30;99.90;;;;;;5009038;28;20713;-71
2023/01/06 02:43:20;;;;;;;6.00;1.33;;;5.30;99.90;;;;;;5008680;28;20407;-71
2023/01/06 02:46:01;;;;;;;5.33;1.40;;;5.20;99.90;;;;;;5005756;28;20415;-71
2023/01/06 02:48:58;;;;;;;3.80;1.83;;;5.20;99.90;;;;;;5012264;28;20411;-70
2023/01/06 02:51:36;;;;;;;2.70;1.60;;;5.10;99.90;;;;;;5012311;28;20422;-70
2023/01/06 02:54:12;;;;;;;1.93;1.57;;;5.10;99.90;;;;;;5012220;28;20820;-70
2023/01/06 02:56:45;;;;;;;5.57;2.20;;;5.10;99.90;;;;;;5005163;28;20511;-70
2023/01/06 02:59:22;;;;;;;3.63;2.20;;;5.10;99.90;;;;;;5012265;28;20407;-71
2023/01/06 03:01:51;;;;;;;4.40;1.90;;;5.10;99.90;;;;;;5012290;28;20458;-70
2023/01/06 03:04:25;;;;;;;2.23;1.90;;;5.20;99.90;;;;;;5012006;28;20497;-70
2023/01/06 03:06:53;;;;;;;1.87;1.73;;;5.20;99.90;;;;;;5011888;28;20874;-71
2023/01/06 03:09:26;;;;;;;9.87;1.90;;;5.20;99.90;;;;;;5010673;28;20423;-70
2023/01/06 03:11:51;;;;;;;2.20;1.33;;;5.20;99.90;;;;;;5012320;28;20471;-71
2023/01/06 03:14:38;;;;;;;2.13;1.20;;;5.20;99.90;;;;;;5012473;28;20447;-70
2023/01/06 03:17:04;;;;;;;3.03;1.17;;;5.20;99.90;;;;;;5012311;28;20218;-70
2023/01/06 03:19:31;;;;;;;1.33;1.23;;;5.10;99.90;;;;;;5012065;28;20423;-70
2023/01/06 03:21:57;;;;;;;2.97;1.73;;;5.20;99.90;;;;;;5012323;28;20176;-71
2023/01/06 03:24:23;;;;;;;2.80;1.50;;;5.10;99.90;;;;;;5012023;28;20447;-70
2023/01/06 03:26:51;;;;;;;1.77;1.50;;;5.20;99.90;;;;;;5012031;28;20469;-70
2023/01/06 03:29:17;;;;;;;5.00;1.67;;;5.20;99.90;;;;;;5012027;28;20172;-71
2023/01/06 03:32:19;;;;;;;1.40;1.23;;;5.10;99.90;;;;;;5012219;28;20419;-71
2023/01/06 03:35:33;;;;;;;1.53;1.20;;;5.20;99.90;;;;;;5010557;28;20462;-71
2023/01/06 03:38:17;;;;;;;4.20;1.27;;;5.20;99.90;;;;;;4969638;28;20413;-71
2023/01/06 03:40:49;;;;;;;2.80;1.20;;;5.20;99.90;;;;;;5006561;28;20442;-70
2023/01/06 03:43:21;;;;;;;3.30;1.60;;;5.20;99.90;;;;;;5011866;28;20968;-70
2023/01/06 03:46:05;;;;;;;4.73;1.40;;;5.20;99.90;;;;;;5011903;28;20415;-70
2023/01/06 03:48:42;;;;;;;1.93;1.40;;;5.10;99.90;;;;;;5011789;28;20438;-70
2023/01/06 03:51:30;;;;;;;1.33;1.20;;;5.20;99.90;;;;;;5012087;28;20415;-70
2023/01/06 03:54:41;;;;;;;1.27;1.13;;;5.20;99.90;;;;;;5009938;28;20478;-70
2023/01/06 03:57:15;;;;;;;1.37;1.17;;;5.20;99.90;;;;;;4988300;28;20453;-70
2023/01/06 03:59:46;;;;;;;1.53;1.10;;;5.20;99.90;;;;;;5004388;28;20403;-70
2023/01/06 04:02:12;;;;;;;5.37;1.33;;;5.20;99.90;;;;;;5011556;28;20418;-70
2023/01/06 04:04:38;;;;;;;1.70;0.90;;;5.20;99.90;;;;;;5011741;28;20415;-70
2023/01/06 04:07:04;;;;;;;2.43;1.20;;;5.20;99.90;;;;;;5011325;28;20744;-70
2023/01/06 04:09:30;;;;;;;1.40;1.30;;;5.20;99.90;;;;;;5011387;28;20250;-70
2023/01/06 04:14:39;;;;;;;2.40;2.20;;;5.20;99.90;;;;;;5004167;28;20583;-70
2023/01/06 04:17:05;;;;;;;2.87;1.43;;;5.20;99.90;;;;;;5011224;28;20500;-71
2023/01/06 04:19:30;;;;;;;3.80;1.20;;;5.20;99.90;;;;;;5011423;28;20704;-71
2023/01/06 04:21:56;;;;;;;2.40;1.57;;;5.20;99.90;;;;;;5011054;28;20641;-70
2023/01/06 04:24:21;;;;;;;1.00;1.00;;;5.20;99.90;;;;;;5011296;28;20199;-70
2023/01/06 04:26:47;;;;;;;2.77;1.20;;;5.20;99.90;;;;;;5011220;28;20513;-70
2023/01/06 04:29:12;;;;;;;1.93;1.40;;;5.20;99.90;;;;;;5010927;28;20266;-69
2023/01/06 04:31:38;;;;;;;1.33;1.10;;;5.20;99.90;;;;;;5011152;28;20183;-70
2023/01/06 04:34:04;;;;;;;1.63;1.53;;;5.20;99.90;;;;;;5011181;28;20591;-70
2023/01/06 04:36:30;;;;;;;1.43;1.33;;;5.30;99.90;;;;;;5010898;28;20275;-70
2023/01/06 04:38:56;;;;;;;3.23;1.20;;;5.30;99.90;;;;;;5011000;28;20176;-71
2023/01/06 04:41:21;;;;;;;1.53;1.03;;;5.30;99.90;;;;;;5011218;28;20422;-69
2023/01/06 04:43:48;;;;;;;1.90;1.50;;;5.30;99.90;;;;;;5010946;28;20176;-70
2023/01/06 04:46:13;;;;;;;2.43;1.70;;;5.30;99.90;;;;;;5010892;28;20220;-70
2023/01/06 04:48:39;;;;;;;4.10;1.30;;;5.30;99.90;;;;;;5010658;28;21024;-70
2023/01/06 04:51:07;;;;;;;1.70;1.50;;;5.20;99.90;;;;;;5010511;28;20176;-70
2023/01/06 04:53:34;;;;;;;2.20;1.33;;;5.20;99.90;;;;;;5010678;28;20178;-70
2023/01/06 04:56:08;;;;;;;4.50;1.67;;;5.20;99.90;;;;;;5010465;28;20498;-70
2023/01/06 04:58:35;;;;;;;1.53;1.30;;;5.20;99.90;;;;;;5010722;28;20465;-70
2023/01/06 05:01:06;;;;;;;1.27;1.17;;;5.30;99.90;;;;;;5010656;28;20422;-70
2023/01/06 05:03:33;;;;;;;4.53;1.67;;;5.20;99.90;;;;;;5010598;28;20423;-70
2023/01/06 05:06:01;;;;;;;4.67;1.40;;;5.30;99.90;;;;;;5010785;28;20446;-70
2023/01/06 05:08:26;;;;;;;9.03;1.80;;;5.20;99.90;;;;;;5010706;28;20515;-70
2023/01/06 05:11:01;;;;;;;4.43;1.67;;;5.20;99.90;;;;;;5010427;28;20518;-70
2023/01/06 05:13:28;;;;;;;2.67;1.40;;;5.20;99.90;;;;;;5010521;28;20225;-69
2023/01/06 05:15:54;;;;;;;2.43;1.67;;;5.20;99.90;;;;;;5010100;28;20463;-69
2023/01/06 05:18:19;;;;;;;3.50;1.90;;;5.20;99.90;;;;;;5010614;28;20470;-69
2023/01/06 05:20:52;;;;;;;2.40;1.27;;;5.20;99.90;;;;;;5010257;28;20168;-69
2023/01/06 05:23:18;;;;;;;1.53;1.43;;;5.20;99.90;;;;;;5010430;28;20177;-69
2023/01/06 05:25:44;;;;;;;4.70;1.90;;;5.20;99.90;;;;;;5036885;23;20407;-67
2023/01/06 05:28:09;;;;;;;1.83;1.30;;;5.20;99.90;;;;;;5033295;28;20430;-67
2023/01/06 05:30:36;;;;;;;3.83;1.93;;;5.20;99.90;;;;;;5033498;28;20174;-68
2023/01/06 05:33:02;;;;;;;2.93;1.70;;;5.30;99.90;;;;;;5035538;28;20164;-68
2023/01/06 05:35:28;;;;;;;2.70;1.73;;;5.30;99.90;;;;;;5037485;28;20974;-68
2023/01/06 05:37:54;;;;;;;2.90;1.50;;;5.30;99.90;;;;;;5021639;28;20168;-68
2023/01/06 05:40:19;;;;;;;2.17;1.30;;;5.30;99.90;;;;;;5021633;28;20242;-68
2023/01/06 05:42:45;;;;;;;1.60;1.30;;;5.30;99.90;;;;;;5038449;28;20417;-70
2023/01/06 05:45:11;;;;;;;3.40;1.63;;;5.30;99.90;;;;;;5037622;28;20229;-69
2023/01/06 05:47:36;;;;;;;2.03;1.90;;;5.30;99.90;;;;;;5036790;28;20200;-68
2023/01/06 05:50:03;;;;;;;4.67;1.87;;;5.30;99.90;;;;;;5037072;28;20176;-68
2023/01/06 05:52:28;;;;;;;2.57;1.43;;;5.30;99.90;;;;;;5037567;28;20205;-68
2023/01/06 05:54:54;;;;;;;4.83;3.33;;;5.40;99.90;;;;;;5019375;28;20543;-68
2023/01/06 05:57:19;;;;;;;2.97;1.50;;;5.40;99.90;;;;;;5038036;28;20183;-69
2023/01/06 05:59:45;;;;;;;6.23;1.70;;;5.30;99.90;;;;;;5036742;28;20618;-69
2023/01/06 06:02:10;;;;;;;2.30;2.00;;;5.30;99.90;;;;;;5036250;28;20250;-67
2023/01/06 06:04:36;;;;;;;2.97;1.90;;;5.30;99.90;;;;;;5027321;28;20184;-70
2023/01/06 06:07:02;;;;;;;7.90;2.50;;;5.20;99.90;;;;;;5035829;28;20199;-67
2023/01/06 06:09:27;;;;;;;6.50;1.73;;;5.30;99.90;;;;;;5035777;28;20178;-67
2023/01/06 06:11:53;;;;;;;2.87;1.70;;;5.30;99.90;;;;;;5035793;28;20241;-67
2023/01/06 06:14:20;;;;;;;3.87;1.50;;;5.30;99.90;;;;;;5036657;28;20577;-69
2023/01/06 06:16:46;;;;;;;8.57;2.43;;;5.30;99.90;;;;;;5036812;28;20484;-69
2023/01/06 06:19:12;;;;;;;2.77;1.90;;;5.30;99.90;;;;;;5035193;28;20776;-68
2023/01/06 06:21:38;;;;;;;4.13;1.83;;;5.20;99.90;;;;;;5028268;28;20497;-69
2023/01/06 06:24:04;;;;;;;2.03;1.63;;;5.30;99.90;;;;;;5036559;28;20434;-69
2023/01/06 06:26:30;;;;;;;6.43;1.80;;;5.30;99.90;;;;;;5036112;28;20204;-69
2023/01/06 06:28:55;;;;;;;3.10;1.83;;;5.30;99.90;;;;;;5035209;28;20429;-69
2023/01/06 06:31:28;;;;;;;2.50;1.90;;;5.30;99.90;;;;;;5036076;28;20267;-69
2023/01/06 06:33:56;;;;;;;2.93;2.60;;;5.30;99.90;;;;;;5036102;28;20168;-69
2023/01/06 06:36:22;;;;;;;2.40;2.00;;;5.20;99.90;;;;;;5037230;28;20456;-69
2023/01/06 06:38:50;;;;;;;4.93;1.70;;;5.20;99.90;;;;;;5036984;28;20564;-68
2023/01/06 06:41:16;;;;;;;2.17;1.93;;;5.20;99.90;;;;;;5036082;28;20407;-68
2023/01/06 06:43:42;;;;;;;5.33;2.37;;;5.20;99.90;;;;;;5035467;28;20426;-69
2023/01/06 06:46:09;;;;;;;7.33;2.60;;;5.20;99.90;;;;;;5035358;28;20464;-69
2023/01/06 06:48:35;;;;;;;4.37;2.20;;;5.20;99.90;;;;;;5034959;28;20409;-69
2023/01/06 06:51:09;;;;;;;2.20;1.80;;;5.20;99.90;;;;;;5035308;28;20418;-69
2023/01/06 06:53:35;;;;;;;5.13;2.60;;;5.20;99.90;;;;;;5036332;28;20692;-68
2023/01/06 06:56:02;;;;;;;5.00;2.80;;;5.20;99.90;;;;;;5036058;28;20461;-68
2023/01/06 06:58:28;;;;;;;3.87;2.37;;;5.30;99.90;;;;;;5035428;28;20469;-68
2023/01/06 07:00:53;;;;;;;4.23;2.30;;;5.30;99.90;;;;;;5020204;28;20411;-68
2023/01/06 07:03:19;;;;;;;3.83;2.43;;;5.30;99.90;;;;;;5034844;28;20411;-68
2023/01/06 07:05:47;;;;;;;5.07;2.33;;;5.30;99.90;;;;;;5029982;28;20195;-66
2023/01/06 07:08:13;;;;;;;2.50;2.17;;;5.40;99.90;;;;;;5034717;28;20418;-68
2023/01/06 07:10:39;;;;;;;4.60;2.83;;;5.30;99.90;;;;;;5034114;28;20426;-67
2023/01/06 07:13:05;;;;;;;4.47;2.90;;;5.40;99.90;;;;;;5034420;28;20630;-67
2023/01/06 07:15:31;;;;;;;3.43;2.77;;;5.40;99.90;;;;;;5036074;28;20218;-68
2023/01/06 07:18:01;;;;;;;6.97;2.80;;;5.40;99.90;;;;;;5036524;28;20410;-68
2023/01/06 07:20:27;;;;;;;5.20;3.93;;;5.40;99.90;;;;;;5035814;28;20429;-69
2023/01/06 07:22:52;;;;;;;5.57;3.13;;;5.50;99.90;;;;;;5045855;28;20413;-69
2023/01/06 07:25:18;;;;;;;3.53;2.60;;;5.50;99.90;;;;;;5044012;28;20463;-69
2023/01/06 07:27:44;;;;;;;5.03;2.43;;;5.50;99.90;;;;;;5035728;28;20294;-68
2023/01/06 07:30:10;;;;;;;4.57;3.53;;;5.50;99.90;;;;;;5035555;28;20186;-68
2023/01/06 07:32:35;;;;;;;11.90;3.70;;;5.50;99.90;;;;;;5035743;28;20713;-68
2023/01/06 07:35:01;;;;;;;4.10;3.67;;;5.60;99.90;;;;;;5036227;28;20541;-69
2023/01/06 07:37:26;;;;;;;8.40;4.00;;;5.60;99.90;;;;;;5035699;28;20608;-69
2023/01/06 07:39:52;;;;;;;9.13;3.70;;;5.60;99.90;;;;;;5036364;28;20171;-69
2023/01/06 07:42:18;;;;;;;4.33;3.83;;;5.60;99.90;;;;;;5036826;28;20168;-69
2023/01/06 07:44:43;;;;;;;5.90;3.53;;;5.70;99.90;;;;;;5036729;28;20168;-69
2023/01/06 07:47:09;;;;;;;6.20;4.00;;;5.70;99.90;;;;;;5035916;28;20691;-69
2023/01/06 07:49:35;;;;;;;4.83;4.03;;;5.80;99.90;;;;;;5034008;28;20174;-69
2023/01/06 07:52:00;;;;;;;9.27;4.30;;;5.80;99.90;;;;;;5033801;28;20414;-68
2023/01/06 07:54:26;;;;;;;5.53;4.60;;;5.80;99.90;;;;;;5035353;28;20195;-68
2023/01/06 07:56:51;;;;;;;4.40;4.00;;;5.90;99.90;;;;;;5034602;28;20238;-68
2023/01/06 07:59:17;;;;;;;9.83;5.10;;;5.90;99.90;;;;;;5035645;28;20199;-69
2023/01/06 08:01:43;;;;;;;7.13;4.53;;;5.90;99.90;;;;;;5034927;28;20175;-70
2023/01/06 08:04:08;;;;;;;8.20;4.70;;;5.90;99.90;;;;;;5033519;28;20187;-68
2023/01/06 08:06:34;;;;;;;5.60;4.70;;;5.90;99.90;;;;;;5019175;28;20199;-68
2023/01/06 08:09:01;;;;;;;7.17;4.13;;;6.00;99.90;;;;;;5033830;28;20180;-69
2023/01/06 08:11:26;;;;;;;5.97;5.10;;;6.00;99.90;;;;;;5033881;28;20183;-68
2023/01/06 08:13:53;;;;;;;8.73;5.33;;;6.20;99.90;;;;;;5034437;28;20464;-69
2023/01/06 08:16:18;;;;;;;12.10;5.33;;;6.20;99.90;;;;;;5034862;28;20442;-68
2023/01/06 08:18:44;;;;;;;6.13;4.90;;;6.20;99.90;;;;;;5034708;28;20186;-68
2023/01/06 08:21:10;;;;;;;6.93;5.30;;;6.20;99.90;;;;;;5034657;28;20172;-68
2023/01/06 08:23:36;;;;;;;9.50;5.80;;;6.20;99.90;;;;;;5034586;28;20164;-68
2023/01/06 08:26:03;;;;;;;10.03;4.97;;;6.20;99.90;;;;;;5027713;28;20450;-68
2023/01/06 08:28:29;;;;;;;7.20;5.67;;;6.20;99.90;;;;;;5034016;28;20472;-68
2023/01/06 08:30:55;;;;;;;6.47;5.77;;;6.20;99.90;;;;;;5035921;28;20797;-68
2023/01/06 08:33:22;;;;;;;8.07;5.40;;;6.20;99.90;;;;;;5033693;28;20685;-68
2023/01/06 08:35:48;;;;;;;6.80;5.60;;;6.20;99.90;;;;;;5034489;28;20203;-68
2023/01/06 08:38:14;;;;;;;11.43;6.43;;;6.30;99.90;;;;;;5033226;28;20506;-68
2023/01/06 08:40:40;;;;;;;8.90;5.93;;;6.30;99.90;;;;;;5011546;28;20480;-68
2023/01/06 08:43:05;;;;;;;8.30;5.77;;;6.30;99.90;;;;;;5021958;28;20179;-69
2023/01/06 08:45:31;;;;;;;6.53;5.07;;;6.30;99.90;;;;;;5023244;28;20181;-69
2023/01/06 08:47:57;;;;;;;7.97;5.57;;;6.30;99.90;;;;;;5020009;28;20195;-69
2023/01/06 08:50:22;;;;;;;10.87;6.17;;;6.30;99.90;;;;;;5017849;28;20194;-68
2023/01/06 08:52:48;;;;;;;14.43;6.47;;;6.30;99.90;;;;;;5019244;28;20525;-69
2023/01/06 08:55:14;;;;;;;8.50;5.90;;;6.30;99.90;;;;;;5016628;28;20200;-69
2023/01/06 08:57:40;;;;;;;9.97;5.93;;;6.40;99.90;;;;;;5020861;28;20237;-69
2023/01/06 09:00:06;;;;;;;7.47;6.10;;;6.40;99.90;;;;;;5017421;28;20229;-68
2023/01/06 09:02:32;;;;;;;14.40;8.83;;;6.30;99.90;;;;;;5026083;28;20461;-69
2023/01/06 09:04:58;;;;;;;13.83;8.53;;;6.40;99.90;;;;;;5026866;28;20441;-69
2023/01/06 09:07:23;;;;;;;14.03;8.37;;;6.40;99.90;;;;;;5021992;28;20222;-68
2023/01/06 09:09:49;;;;;;;14.70;6.90;;;6.50;99.90;;;;;;5028585;28;20543;-69
2023/01/06 09:12:14;;;;;;;11.07;7.27;;;6.40;99.90;;;;;;5026834;28;20595;-68
2023/01/06 09:14:40;;;;;;;9.70;7.60;;;6.50;99.90;;;;;;5023384;28;20207;-69
2023/01/06 09:17:05;;;;;;;10.27;7.30;;;6.50;99.90;;;;;;5029858;28;20479;-68
2023/01/06 09:19:31;;;;;;;15.03;9.03;;;6.60;99.90;;;;;;5012622;28;20183;-68
2023/01/06 09:21:57;;;;;;;17.63;8.27;;;6.70;99.90;;;;;;5027083;28;20574;-68
2023/01/06 09:24:22;;;;;;;12.30;7.60;;;6.80;99.90;;;;;;5029769;28;20308;-69
2023/01/06 09:26:48;;;;;;;22.10;8.00;;;6.80;99.90;;;;;;5034978;28;20215;-67
2023/01/06 09:29:14;;;;;;;10.37;8.20;;;6.80;99.90;;;;;;5029172;28;20311;-68
2023/01/06 09:31:39;;;;;;;9.23;7.40;;;6.80;99.90;;;;;;5022746;28;26752;-68
2023/01/06 09:34:05;;;;;;;11.20;7.73;;;7.00;99.90;;;;;;5028163;28;20179;-68
2023/01/06 09:36:31;;;;;;;11.23;8.10;;;7.00;99.90;;;;;;5026220;28;20200;-67
2023/01/06 09:38:57;;;;;;;10.37;8.47;;;7.10;99.90;;;;;;5019990;28;20246;-67
2023/01/06 09:41:25;;;;;;;12.70;7.87;;;7.10;99.90;;;;;;5028706;28;20943;-69
2023/01/06 09:44:03;;;;;;;15.10;8.57;;;7.10;99.90;;;;;;5019739;28;20295;-69
2023/01/06 09:46:34;;;;;;;12.00;8.33;;;7.20;99.90;;;;;;5024047;28;20706;-68
2023/01/06 09:49:14;;;;;;;11.57;8.77;;;7.30;99.90;;;;;;5026034;28;20898;-68
2023/01/06 09:51:40;;;;;;;12.00;7.90;;;7.20;99.90;;;;;;5021991;28;20427;-68
2023/01/06 09:54:32;;;;;;;11.00;6.83;;;7.20;99.90;;;;;;5025835;28;20768;-68
2023/01/06 09:57:12;;;;;;;16.10;10.50;;;7.20;99.90;;;;;;5022003;28;21034;-68
2023/01/06 09:59:44;;;;;;;13.60;7.47;;;7.30;99.90;;;;;;5030713;28;20434;-68
2023/01/06 10:02:26;;;;;;;13.50;7.83;;;7.40;99.90;;;;;;5014092;28;20438;-68
2023/01/06 10:04:52;;;;;;;13.83;8.53;;;7.40;99.90;;;;;;5023370;28;20492;-67
2023/01/06 10:07:33;;;;;;;10.97;8.30;;;7.40;99.90;;;;;;5027977;28;20457;-67
2023/01/06 10:10:23;;;;;;;17.00;10.50;;;7.60;99.90;;;;;;5027793;28;20182;-68
2023/01/06 10:13:06;;;;;;;15.00;8.53;;;7.50;99.90;;;;;;5025266;28;20457;-67
2023/01/06 10:15:50;;;;;;;12.47;9.10;;;7.60;99.90;;;;;;5023582;28;20459;-68
2023/01/06 10:18:31;;;;;;;11.60;7.73;;;7.70;99.90;;;;;;5025002;28;20441;-68
2023/01/06 10:21:33;;;;;;;14.73;8.33;;;7.70;99.90;;;;;;5024403;28;20447;-68
2023/01/06 10:24:17;;;;;;;10.70;8.37;;;7.80;99.90;;;;;;5025029;28;20438;-69
2023/01/06 10:26:47;;;;;;;17.03;9.40;;;7.90;99.90;;;;;;5023188;28;20495;-67
2023/01/06 10:29:18;;;;;;;8.83;7.10;;;7.80;99.90;;;;;;5029996;28;20438;-67
2023/01/06 10:31:46;;;;;;;12.40;7.60;;;7.90;99.90;;;;;;5021065;28;20423;-67
2023/01/06 10:34:23;;;;;;;14.00;8.50;;;7.90;99.90;;;;;;5025900;28;21020;-68
2023/01/06 10:37:19;;;;;;;9.63;7.97;;;7.90;99.90;;;;;;5020726;28;20991;-68
2023/01/06 10:39:50;;;;;;;14.03;8.50;;;8.00;99.90;;;;;;5023218;28;20410;-68
2023/01/06 10:42:56;;;;;;;17.60;6.87;;;8.20;99.90;;;;;;5019941;28;20416;-68
2023/01/06 10:45:43;;;;;;;10.07;7.13;;;8.10;99.90;;;;;;5028888;28;20430;-68
2023/01/06 10:48:22;;;;;;;13.37;7.57;;;8.30;99.90;;;;;;5028066;28;20476;-68
2023/01/06 10:50:48;;;;;;;9.67;7.30;;;8.50;99.90;;;;;;5029099;28;20499;-68
2023/01/06 10:53:14;;;;;;;13.27;7.90;;;8.40;99.90;;;;;;5035318;28;20541;-68
2023/01/06 10:55:49;;;;;;;14.53;7.93;;;8.40;99.90;;;;;;5034876;28;20199;-68
2023/01/06 10:58:44;;;;;;;10.40;7.03;;;8.50;99.90;;;;;;5032088;28;20419;-68
2023/01/06 11:01:14;;;;;;;11.40;7.53;;;8.60;99.90;;;;;;5032587;28;20913;-69
2023/01/06 11:03:41;;;;;;;12.03;7.83;;;8.60;99.90;;;;;;5031529;28;20399;-68
2023/01/06 11:06:09;;;;;;;7.77;6.80;;;8.70;99.90;;;;;;5034917;28;20517;-68
2023/01/06 11:08:36;;;;;;;10.50;7.47;;;8.70;99.90;;;;;;5017048;28;20406;-68
2023/01/06 11:11:08;;;;;;;12.73;7.73;;;8.70;99.90;;;;;;5033743;28;20434;-67
2023/01/06 11:13:36;;;;;;;9.00;6.67;;;8.70;99.90;;;;;;5033499;28;20876;-68
2023/01/06 11:16:04;;;;;;;17.93;10.30;;;8.70;99.90;;;;;;5030597;28;20479;-68
2023/01/06 11:18:36;;;;;;;8.23;6.40;;;8.70;99.90;;;;;;5034966;28;20511;-68
2023/01/06 11:21:11;;;;;;;11.97;7.80;;;8.80;99.90;;;;;;5037611;28;20409;-68
2023/01/06 11:23:39;;;;;;;7.80;6.40;;;8.80;99.90;;;;;;5031990;28;20429;-69
2023/01/06 11:26:11;;;;;;;8.80;7.30;;;8.80;99.90;;;;;;5037586;28;20454;-68
2023/01/06 11:28:38;;;;;;;8.97;7.20;;;8.80;99.90;;;;;;5037905;28;20775;-70
2023/01/06 11:31:05;;;;;;;10.30;6.53;;;8.80;99.90;;;;;;5035780;28;20422;-69
2023/01/06 11:33:35;;;;;;;10.03;6.90;;;8.90;99.90;;;;;;5033016;28;20422;-68
2023/01/06 11:36:12;;;;;;;11.27;6.63;;;8.90;99.90;;;;;;5035355;28;20538;-68
2023/01/06 11:38:50;;;;;;;8.67;7.23;;;9.00;99.90;;;;;;5023294;28;20422;-69
2023/01/06 11:41:39;;;;;;;11.57;7.57;;;9.00;99.90;;;;;;5035889;28;20412;-69
2023/01/06 11:44:12;;;;;;;8.10;5.87;;;9.00;99.90;;;;;;5042765;22;20506;-68
2023/01/06 11:46:45;;;;;;;10.70;5.93;;;9.10;99.90;;;;;;5016368;28;20927;-68
2023/01/06 11:49:28;;;;;;;12.70;7.60;;;9.00;99.90;;;;;;5025111;28;20572;-67
2023/01/06 11:52:19;;;;;;;7.50;5.67;;;9.10;99.90;;;;;;5026043;28;20403;-67
2023/01/06 11:54:54;;;;;;;8.67;5.10;;;9.10;99.90;;;;;;5024779;28;20515;-67
2023/01/06 11:57:43;;;;;;;7.90;6.03;;;9.10;99.90;;;;;;5032561;28;20398;-67
2023/01/06 12:00:36;;;;;;;8.60;7.03;;;9.10;99.90;;;;;;5032257;28;20430;-67
2023/01/06 12:03:31;;;;;;;7.53;6.60;;;9.10;99.90;;;;;;5027903;28;20408;-68
2023/01/06 12:06:10;;;;;;;13.37;6.30;;;9.20;99.90;;;;;;5028185;28;20414;-67
2023/01/06 12:08:58;;;;;;;10.80;6.23;;;9.20;99.90;;;;;;5032150;28;20441;-69
2023/01/06 12:11:46;;;;;;;10.20;6.23;;;9.20;99.90;;;;;;5030371;28;20430;-67
2023/01/06 12:14:21;;;;;;;10.90;6.47;;;9.30;99.90;;;;;;5032018;28;20791;-66
2023/01/06 12:17:01;;;;;;;8.87;6.13;;;9.30;99.90;;;;;;5025126;28;20419;-67
2023/01/06 12:19:51;;;;;;;8.70;5.60;;;9.30;99.90;;;;;;5031805;28;20496;-67
2023/01/06 12:22:46;;;;;;;8.80;5.63;;;9.40;99.90;;;;;;5032030;28;20425;-67
2023/01/06 12:25:25;;;;;;;7.97;5.47;;;9.50;99.90;;;;;;5029003;28;20428;-68
2023/01/06 12:27:56;;;;;;;7.03;5.00;;;9.60;99.90;;;;;;5032045;28;20448;-67
2023/01/06 12:30:37;;;;;;;8.73;5.30;;;9.60;99.90;;;;;;5031746;28;20913;-67
2023/01/06 12:33:14;;;;;;;7.10;4.57;;;9.60;99.90;;;;;;5031852;28;20457;-67
2023/01/06 12:35:42;;;;;;;8.37;5.00;;;9.60;99.90;;;;;;5006320;28;20858;-67
2023/01/06 12:38:27;;;;;;;10.23;4.83;;;9.60;99.90;;;;;;5031799;28;20797;-67
2023/01/06 12:41:00;;;;;;;9.30;5.50;;;9.70;99.90;;;;;;5025766;28;20501;-67
2023/01/06 12:43:30;;;;;;;14.00;5.10;;;9.70;99.90;;;;;;5031185;28;20974;-67
2023/01/06 12:46:04;;;;;;;5.70;4.40;;;9.70;99.90;;;;;;5032161;28;20863;-67
2023/01/06 12:48:33;;;;;;;7.60;4.63;;;9.80;99.90;;;;;;5031475;28;20824;-67
2023/01/06 12:51:22;;;;;;;7.00;3.77;;;9.80;99.90;;;;;;5031595;28;20729;-66
2023/01/06 12:54:10;;;;;;;6.97;4.50;;;9.80;99.90;;;;;;5030099;28;20434;-67
2023/01/06 12:56:47;;;;;;;4.40;3.73;;;9.90;99.90;;;;;;5031199;28;20943;-67
2023/01/06 12:59:34;;;;;;;6.13;4.60;;;9.90;99.90;;;;;;5027979;28;20430;-66
2023/01/06 13:02:32;;;;;;;7.40;5.20;;;9.90;99.90;;;;;;5031389;28;20411;-66
2023/01/06 13:05:17;;;;;;;5.77;3.70;;;9.90;99.90;;;;;;5025951;28;20421;-67
2023/01/06 13:07:45;;;;;;;3.70;3.40;;;10.00;99.90;;;;;;5024115;28;20405;-67
2023/01/06 13:10:26;;;;;;;5.43;3.57;;;10.00;99.90;;;;;;5031381;28;20399;-67
2023/01/06 13:13:25;;;;;;;4.80;3.70;;;10.00;99.90;;;;;;5007560;28;20909;-67
2023/01/06 13:15:53;;;;;;;6.63;3.57;;;10.00;99.90;;;;;;5028419;28;20548;-67
2023/01/06 13:18:43;;;;;;;4.37;3.40;;;10.10;99.90;;;;;;5031368;28;20406;-67
2023/01/06 13:21:15;;;;;;;4.27;3.10;;;10.10;99.90;;;;;;5031243;28;20403;-67
2023/01/06 13:24:11;;;;;;;5.40;3.53;;;10.20;99.90;;;;;;5023438;28;20483;-67